KLM93Z EHAM-LEBL
Flight info
| Callsign | KLM93Z |
|---|---|
| Flight time | N/A |
| Altitude | 36000 |
| Route | WOODY DCT CIV DCT KOVIN DCT DUCRA UM728 RESMI UN857 DISAK DCT DIRMO DCT VALKU DCT ATSUP DCT MINSO DCT DEGOL DCT PPG DCT ALBER |
| Aircraft | A21N/M-SDE2E3FGHIRWXY/LB1 |
Departure
| Time | 2026-05-07 14:11 |
|---|---|
| Airport | Amsterdam Airport Schiphol (EHAM) |
Arrival
| Time | N/A |
|---|---|
| Airport | Josep Tarradellas Barcelona-El Prat Airport (LEBL) |
| Time | Latitude | Longitude | Altitude | Speed | Heading |
|---|---|---|---|---|---|
| 2026-05-07 13:40 | 52.30625 | 4.76633 | 4 ft | 0 kts | 237° |
| 2026-05-07 13:55 | 52.30635 | 4.76658 | 4 ft | 4 kts | 234° |
| 2026-05-07 13:55 | 52.30652 | 4.76692 | 4 ft | 4 kts | 225° |
| 2026-05-07 13:55 | 52.30672 | 4.76717 | 4 ft | 4 kts | 196° |
| 2026-05-07 13:56 | 52.30690 | 4.76717 | 4 ft | 0 kts | 150° |
| 2026-05-07 13:59 | 52.30687 | 4.76720 | 4 ft | 2 kts | 150° |
| 2026-05-07 13:59 | 52.30665 | 4.76740 | 4 ft | 5 kts | 151° |
| 2026-05-07 14:00 | 52.30626 | 4.76785 | 4 ft | 9 kts | 135° |
| 2026-05-07 14:00 | 52.30587 | 4.76881 | 4 ft | 12 kts | 134° |
| 2026-05-07 14:00 | 52.30513 | 4.76961 | 4 ft | 12 kts | 148° |
| 2026-05-07 14:00 | 52.30511 | 4.77089 | 4 ft | 14 kts | 61° |
| 2026-05-07 14:01 | 52.30569 | 4.77244 | 4 ft | 17 kts | 57° |
| 2026-05-07 14:01 | 52.30640 | 4.77420 | 4 ft | 19 kts | 43° |
| 2026-05-07 14:01 | 52.30688 | 4.77454 | 4 ft | 0 kts | 6° |
| 2026-05-07 14:02 | 52.30691 | 4.77454 | 4 ft | 2 kts | 6° |
| 2026-05-07 14:02 | 52.30715 | 4.77458 | 4 ft | 5 kts | 4° |
| 2026-05-07 14:02 | 52.30761 | 4.77462 | 4 ft | 8 kts | 2° |
| 2026-05-07 14:03 | 52.30823 | 4.77501 | 4 ft | 12 kts | 60° |
| 2026-05-07 14:03 | 52.30876 | 4.77608 | 4 ft | 15 kts | 8° |
| 2026-05-07 14:03 | 52.30989 | 4.77618 | 4 ft | 18 kts | 3° |
| 2026-05-07 14:03 | 52.31122 | 4.77631 | 4 ft | 20 kts | 3° |
| 2026-05-07 14:04 | 52.31265 | 4.77644 | 4 ft | 21 kts | 3° |
| 2026-05-07 14:04 | 52.31415 | 4.77655 | 4 ft | 22 kts | 351° |
| 2026-05-07 14:04 | 52.31540 | 4.77513 | 4 ft | 23 kts | 310° |
| 2026-05-07 14:04 | 52.31575 | 4.77262 | 4 ft | 24 kts | 266° |
| 2026-05-07 14:05 | 52.31565 | 4.76985 | 4 ft | 25 kts | 266° |
| 2026-05-07 14:05 | 52.31555 | 4.76698 | 4 ft | 25 kts | 267° |
| 2026-05-07 14:05 | 52.31546 | 4.76443 | 5 ft | 19 kts | 266° |
| 2026-05-07 14:05 | 52.31538 | 4.76222 | 5 ft | 20 kts | 267° |
| 2026-05-07 14:06 | 52.31531 | 4.75991 | 5 ft | 21 kts | 266° |
| 2026-05-07 14:06 | 52.31523 | 4.75750 | 4 ft | 22 kts | 267° |
| 2026-05-07 14:06 | 52.31513 | 4.75498 | 4 ft | 23 kts | 266° |
| 2026-05-07 14:06 | 52.31480 | 4.75234 | -2 ft | 35 kts | 276° |
| 2026-05-07 14:07 | 52.31494 | 4.74936 | 4 ft | 9 kts | 266° |
| 2026-05-07 14:07 | 52.31492 | 4.74872 | 4 ft | 0 kts | 266° |
| 2026-05-07 14:08 | 52.31491 | 4.74839 | 4 ft | 8 kts | 266° |
| 2026-05-07 14:08 | 52.31496 | 4.74699 | 4 ft | 12 kts | 311° |
| 2026-05-07 14:08 | 52.31554 | 4.74660 | 4 ft | 10 kts | 356° |
| 2026-05-07 14:08 | 52.31647 | 4.74687 | 5 ft | 14 kts | 38° |
| 2026-05-07 14:09 | 52.31668 | 4.74769 | 5 ft | 0 kts | 86° |
| 2026-05-07 14:10 | 52.31670 | 4.74825 | 4 ft | 27 kts | 86° |
| 2026-05-07 14:10 | 52.31691 | 4.75521 | 2 ft | 93 kts | 88° |
| 2026-05-07 14:10 | 52.31741 | 4.76896 | 3 ft | 148 kts | 86° |
| 2026-05-07 14:11 | 52.31802 | 4.78794 | 130 ft | 175 kts | 90° |
| 2026-05-07 14:11 | 52.31795 | 4.80748 | 772 ft | 174 kts | 94° |
| 2026-05-07 14:11 | 52.31421 | 4.82637 | 1385 ft | 185 kts | 126° |